sensor_id;sensor_type;location;lat;lon;timestamp;pressure;altitude;pressure_sealevel;temperature
7389;BMP180;3735;50.136;11.062;2022-11-15T00:00:55;98037.00;;;5.30
7389;BMP180;3735;50.136;11.062;2022-11-15T00:03:24;98041.00;;;5.30
7389;BMP180;3735;50.136;11.062;2022-11-15T00:05:50;98023.00;;;5.20
7389;BMP180;3735;50.136;11.062;2022-11-15T00:08:16;98041.00;;;5.20
7389;BMP180;3735;50.136;11.062;2022-11-15T00:10:42;98035.00;;;5.20
7389;BMP180;3735;50.136;11.062;2022-11-15T00:13:13;98028.00;;;5.10
7389;BMP180;3735;50.136;11.062;2022-11-15T00:15:40;98030.00;;;5.10
7389;BMP180;3735;50.136;11.062;2022-11-15T00:18:12;98026.00;;;5.00
7389;BMP180;3735;50.136;11.062;2022-11-15T00:20:38;98042.00;;;4.80
7389;BMP180;3735;50.136;11.062;2022-11-15T00:23:05;98027.00;;;4.60
7389;BMP180;3735;50.136;11.062;2022-11-15T00:25:31;98030.00;;;4.50
7389;BMP180;3735;50.136;11.062;2022-11-15T00:27:59;98030.00;;;4.40
7389;BMP180;3735;50.136;11.062;2022-11-15T00:30:25;98040.00;;;4.30
7389;BMP180;3735;50.136;11.062;2022-11-15T00:32:51;98034.00;;;4.30
7389;BMP180;3735;50.136;11.062;2022-11-15T00:35:18;98036.00;;;4.20
7389;BMP180;3735;50.136;11.062;2022-11-15T00:37:44;98041.00;;;4.10
7389;BMP180;3735;50.136;11.062;2022-11-15T00:40:11;98041.00;;;4.00
7389;BMP180;3735;50.136;11.062;2022-11-15T00:42:38;98051.00;;;3.90
7389;BMP180;3735;50.136;11.062;2022-11-15T00:45:05;98036.00;;;3.90
7389;BMP180;3735;50.136;11.062;2022-11-15T00:47:31;98038.00;;;3.80
7389;BMP180;3735;50.136;11.062;2022-11-15T00:49:57;98043.00;;;3.80
7389;BMP180;3735;50.136;11.062;2022-11-15T00:52:23;98041.00;;;3.70
7389;BMP180;3735;50.136;11.062;2022-11-15T00:54:49;98035.00;;;3.60
7389;BMP180;3735;50.136;11.062;2022-11-15T00:57:14;98027.00;;;3.60
7389;BMP180;3735;50.136;11.062;2022-11-15T00:59:40;98030.00;;;3.60
7389;BMP180;3735;50.136;11.062;2022-11-15T01:02:06;98031.00;;;3.70
7389;BMP180;3735;50.136;11.062;2022-11-15T01:04:31;98024.00;;;3.70
7389;BMP180;3735;50.136;11.062;2022-11-15T01:06:57;98029.00;;;3.80
7389;BMP180;3735;50.136;11.062;2022-11-15T01:09:23;98018.00;;;4.00
7389;BMP180;3735;50.136;11.062;2022-11-15T01:11:49;98011.00;;;4.10
7389;BMP180;3735;50.136;11.062;2022-11-15T01:14:15;98024.00;;;4.30
7389;BMP180;3735;50.136;11.062;2022-11-15T01:16:40;98015.00;;;4.50
7389;BMP180;3735;50.136;11.062;2022-11-15T01:19:06;98018.00;;;4.70
7389;BMP180;3735;50.136;11.062;2022-11-15T01:21:32;98022.00;;;4.80
7389;BMP180;3735;50.136;11.062;2022-11-15T01:23:58;98017.00;;;5.00
7389;BMP180;3735;50.136;11.062;2022-11-15T01:26:24;97998.00;;;5.10
7389;BMP180;3735;50.136;11.062;2022-11-15T01:28:51;98003.00;;;5.20
7389;BMP180;3735;50.136;11.062;2022-11-15T01:31:20;97998.00;;;5.30
7389;BMP180;3735;50.136;11.062;2022-11-15T01:33:47;97991.00;;;5.50
7389;BMP180;3735;50.136;11.062;2022-11-15T01:36:18;97994.00;;;5.60
7389;BMP180;3735;50.136;11.062;2022-11-15T01:38:45;97980.00;;;5.70
7389;BMP180;3735;50.136;11.062;2022-11-15T01:41:18;97975.00;;;5.80
7389;BMP180;3735;50.136;11.062;2022-11-15T01:43:47;97973.00;;;5.80
7389;BMP180;3735;50.136;11.062;2022-11-15T01:46:26;97973.00;;;5.80
7389;BMP180;3735;50.136;11.062;2022-11-15T01:48:54;97964.00;;;5.90
7389;BMP180;3735;50.136;11.062;2022-11-15T01:51:25;97958.00;;;6.00
7389;BMP180;3735;50.136;11.062;2022-11-15T01:53:55;97967.00;;;5.90
7389;BMP180;3735;50.136;11.062;2022-11-15T01:56:27;97947.00;;;6.00
7389;BMP180;3735;50.136;11.062;2022-11-15T01:58:57;97953.00;;;6.00
7389;BMP180;3735;50.136;11.062;2022-11-15T02:01:25;97950.00;;;6.00
7389;BMP180;3735;50.136;11.062;2022-11-15T02:04:26;97955.00;;;6.00
7389;BMP180;3735;50.136;11.062;2022-11-15T02:06:53;97960.00;;;6.00
7389;BMP180;3735;50.136;11.062;2022-11-15T02:09:19;97967.00;;;6.10
7389;BMP180;3735;50.136;11.062;2022-11-15T02:11:47;97962.00;;;6.10
7389;BMP180;3735;50.136;11.062;2022-11-15T02:14:16;97962.00;;;6.10
7389;BMP180;3735;50.136;11.062;2022-11-15T02:22:41;97941.00;;;6.30
7389;BMP180;3735;50.136;11.062;2022-11-15T02:42:41;97931.00;;;6.40
7389;BMP180;3735;50.136;11.062;2022-11-15T02:45:35;97925.00;;;6.50
7389;BMP180;3735;50.136;11.062;2022-11-15T02:48:04;97926.00;;;6.50
7389;BMP180;3735;50.136;11.062;2022-11-15T02:50:33;97928.00;;;6.50
7389;BMP180;3735;50.136;11.062;2022-11-15T02:52:59;97918.00;;;6.60
7389;BMP180;3735;50.136;11.062;2022-11-15T02:55:42;97922.00;;;6.70
7389;BMP180;3735;50.136;11.062;2022-11-15T03:04:19;97917.00;;;6.80
7389;BMP180;3735;50.136;11.062;2022-11-15T03:07:13;97908.00;;;6.80
7389;BMP180;3735;50.136;11.062;2022-11-15T03:10:05;97916.00;;;6.80
7389;BMP180;3735;50.136;11.062;2022-11-15T03:15:26;97911.00;;;6.80
7389;BMP180;3735;50.136;11.062;2022-11-15T03:18:02;97885.00;;;6.90
7389;BMP180;3735;50.136;11.062;2022-11-15T03:20:30;97889.00;;;6.90
7389;BMP180;3735;50.136;11.062;2022-11-15T03:23:04;97892.00;;;6.80
7389;BMP180;3735;50.136;11.062;2022-11-15T03:25:33;97866.00;;;6.80
7389;BMP180;3735;50.136;11.062;2022-11-15T03:28:05;97877.00;;;6.70
7389;BMP180;3735;50.136;11.062;2022-11-15T03:30:34;97866.00;;;6.60
7389;BMP180;3735;50.136;11.062;2022-11-15T03:33:04;97863.00;;;6.50
7389;BMP180;3735;50.136;11.062;2022-11-15T03:35:42;97862.00;;;6.30
7389;BMP180;3735;50.136;11.062;2022-11-15T03:38:14;97866.00;;;6.10
7389;BMP180;3735;50.136;11.062;2022-11-15T03:40:45;97863.00;;;6.10
7389;BMP180;3735;50.136;11.062;2022-11-15T03:43:47;97863.00;;;6.00
7389;BMP180;3735;50.136;11.062;2022-11-15T03:47:04;97873.00;;;5.80
7389;BMP180;3735;50.136;11.062;2022-11-15T03:49:36;97871.00;;;5.60
7389;BMP180;3735;50.136;11.062;2022-11-15T03:52:05;97865.00;;;5.50
7389;BMP180;3735;50.136;11.062;2022-11-15T03:54:31;97868.00;;;5.50
7389;BMP180;3735;50.136;11.062;2022-11-15T03:56:57;97872.00;;;5.30
7389;BMP180;3735;50.136;11.062;2022-11-15T03:59:23;97878.00;;;5.30
7389;BMP180;3735;50.136;11.062;2022-11-15T04:01:49;97874.00;;;5.20
7389;BMP180;3735;50.136;11.062;2022-11-15T04:04:14;97875.00;;;5.20
7389;BMP180;3735;50.136;11.062;2022-11-15T04:06:40;97876.00;;;5.00
7389;BMP180;3735;50.136;11.062;2022-11-15T04:09:06;97869.00;;;5.00
7389;BMP180;3735;50.136;11.062;2022-11-15T04:11:32;97867.00;;;4.90
7389;BMP180;3735;50.136;11.062;2022-11-15T04:13:58;97869.00;;;4.70
7389;BMP180;3735;50.136;11.062;2022-11-15T04:16:24;97868.00;;;4.60
7389;BMP180;3735;50.136;11.062;2022-11-15T04:18:49;97862.00;;;4.50
7389;BMP180;3735;50.136;11.062;2022-11-15T04:21:35;97868.00;;;4.50
7389;BMP180;3735;50.136;11.062;2022-11-15T04:24:19;97861.00;;;4.40
7389;BMP180;3735;50.136;11.062;2022-11-15T04:26:45;97879.00;;;4.20
7389;BMP180;3735;50.136;11.062;2022-11-15T04:29:11;97857.00;;;4.30
7389;BMP180;3735;50.136;11.062;2022-11-15T04:31:55;97860.00;;;4.40
7389;BMP180;3735;50.136;11.062;2022-11-15T04:34:21;97857.00;;;4.30
7389;BMP180;3735;50.136;11.062;2022-11-15T04:36:47;97858.00;;;4.20
7389;BMP180;3735;50.136;11.062;2022-11-15T04:39:31;97869.00;;;4.20
7389;BMP180;3735;50.136;11.062;2022-11-15T04:41:57;97864.00;;;4.30
7389;BMP180;3735;50.136;11.062;2022-11-15T04:44:22;97855.00;;;4.20
7389;BMP180;3735;50.136;11.062;2022-11-15T04:46:48;97845.00;;;4.20
7389;BMP180;3735;50.136;11.062;2022-11-15T04:49:14;97849.00;;;4.20
7389;BMP180;3735;50.136;11.062;2022-11-15T04:51:40;97843.00;;;4.10
7389;BMP180;3735;50.136;11.062;2022-11-15T04:54:06;97858.00;;;4.10
7389;BMP180;3735;50.136;11.062;2022-11-15T04:56:31;97872.00;;;4.10
7389;BMP180;3735;50.136;11.062;2022-11-15T04:58:57;97855.00;;;4.00
7389;BMP180;3735;50.136;11.062;2022-11-15T05:01:23;97849.00;;;4.00
7389;BMP180;3735;50.136;11.062;2022-11-15T05:03:49;97858.00;;;3.80
7389;BMP180;3735;50.136;11.062;2022-11-15T05:06:33;97849.00;;;3.70
7389;BMP180;3735;50.136;11.062;2022-11-15T05:08:59;97829.00;;;3.80
7389;BMP180;3735;50.136;11.062;2022-11-15T05:11:24;97843.00;;;3.70
7389;BMP180;3735;50.136;11.062;2022-11-15T05:13:50;97845.00;;;3.70
7389;BMP180;3735;50.136;11.062;2022-11-15T05:16:16;97842.00;;;3.60
7389;BMP180;3735;50.136;11.062;2022-11-15T05:18:42;97846.00;;;3.60
7389;BMP180;3735;50.136;11.062;2022-11-15T05:21:14;97842.00;;;3.50
7389;BMP180;3735;50.136;11.062;2022-11-15T05:23:41;97844.00;;;3.40
7389;BMP180;3735;50.136;11.062;2022-11-15T05:26:07;97839.00;;;3.30
7389;BMP180;3735;50.136;11.062;2022-11-15T05:28:34;97844.00;;;3.30
7389;BMP180;3735;50.136;11.062;2022-11-15T05:31:08;97845.00;;;3.30
7389;BMP180;3735;50.136;11.062;2022-11-15T05:33:37;97842.00;;;3.30
7389;BMP180;3735;50.136;11.062;2022-11-15T05:36:18;97830.00;;;3.20
7389;BMP180;3735;50.136;11.062;2022-11-15T05:38:48;97840.00;;;3.20
7389;BMP180;3735;50.136;11.062;2022-11-15T05:41:18;97836.00;;;3.20
7389;BMP180;3735;50.136;11.062;2022-11-15T05:43:48;97816.00;;;3.40
7389;BMP180;3735;50.136;11.062;2022-11-15T05:46:15;97829.00;;;3.60
7389;BMP180;3735;50.136;11.062;2022-11-15T05:48:49;97830.00;;;3.70
7389;BMP180;3735;50.136;11.062;2022-11-15T05:51:19;97821.00;;;3.90
7389;BMP180;3735;50.136;11.062;2022-11-15T05:53:45;97825.00;;;4.00
7389;BMP180;3735;50.136;11.062;2022-11-15T05:56:12;97819.00;;;4.00
7389;BMP180;3735;50.136;11.062;2022-11-15T05:58:39;97818.00;;;3.90
7389;BMP180;3735;50.136;11.062;2022-11-15T06:01:05;97821.00;;;3.90
7389;BMP180;3735;50.136;11.062;2022-11-15T06:03:31;97821.00;;;3.80
7389;BMP180;3735;50.136;11.062;2022-11-15T06:05:57;97815.00;;;3.80
7389;BMP180;3735;50.136;11.062;2022-11-15T06:08:23;97817.00;;;3.70
7389;BMP180;3735;50.136;11.062;2022-11-15T06:10:48;97823.00;;;3.70
7389;BMP180;3735;50.136;11.062;2022-11-15T06:13:14;97800.00;;;3.70
7389;BMP180;3735;50.136;11.062;2022-11-15T06:15:40;97825.00;;;3.80
7389;BMP180;3735;50.136;11.062;2022-11-15T06:18:06;97823.00;;;3.80
7389;BMP180;3735;50.136;11.062;2022-11-15T06:20:32;97826.00;;;3.90
7389;BMP180;3735;50.136;11.062;2022-11-15T06:23:00;97821.00;;;3.90
7389;BMP180;3735;50.136;11.062;2022-11-15T06:25:27;97814.00;;;3.80
7389;BMP180;3735;50.136;11.062;2022-11-15T06:27:58;97826.00;;;3.70
7389;BMP180;3735;50.136;11.062;2022-11-15T06:30:26;97821.00;;;3.70
7389;BMP180;3735;50.136;11.062;2022-11-15T06:32:59;97830.00;;;3.80
7389;BMP180;3735;50.136;11.062;2022-11-15T06:35:26;97822.00;;;3.90
7389;BMP180;3735;50.136;11.062;2022-11-15T06:37:51;97826.00;;;3.90
7389;BMP180;3735;50.136;11.062;2022-11-15T06:40:26;97827.00;;;3.90
7389;BMP180;3735;50.136;11.062;2022-11-15T06:42:58;97817.00;;;4.00
7389;BMP180;3735;50.136;11.062;2022-11-15T06:45:25;97819.00;;;4.00
7389;BMP180;3735;50.136;11.062;2022-11-15T06:47:51;97815.00;;;4.20
7389;BMP180;3735;50.136;11.062;2022-11-15T06:50:17;97819.00;;;4.30
7389;BMP180;3735;50.136;11.062;2022-11-15T06:52:43;97826.00;;;4.30
7389;BMP180;3735;50.136;11.062;2022-11-15T06:55:14;97836.00;;;4.30
7389;BMP180;3735;50.136;11.062;2022-11-15T06:57:48;97839.00;;;4.10
7389;BMP180;3735;50.136;11.062;2022-11-15T07:00:16;97848.00;;;4.10
7389;BMP180;3735;50.136;11.062;2022-11-15T07:02:42;97849.00;;;4.10
7389;BMP180;3735;50.136;11.062;2022-11-15T07:05:08;97845.00;;;4.20
7389;BMP180;3735;50.136;11.062;2022-11-15T07:07:34;97839.00;;;4.20
7389;BMP180;3735;50.136;11.062;2022-11-15T07:09:59;97847.00;;;4.20
7389;BMP180;3735;50.136;11.062;2022-11-15T07:12:25;97849.00;;;4.20
7389;BMP180;3735;50.136;11.062;2022-11-15T07:14:51;97844.00;;;4.20
7389;BMP180;3735;50.136;11.062;2022-11-15T07:17:20;97848.00;;;4.20
7389;BMP180;3735;50.136;11.062;2022-11-15T07:19:45;97837.00;;;4.20
7389;BMP180;3735;50.136;11.062;2022-11-15T07:22:11;97831.00;;;4.20
7389;BMP180;3735;50.136;11.062;2022-11-15T07:24:37;97839.00;;;4.20
7389;BMP180;3735;50.136;11.062;2022-11-15T07:27:02;97824.00;;;4.30
7389;BMP180;3735;50.136;11.062;2022-11-15T07:29:28;97826.00;;;4.30
7389;BMP180;3735;50.136;11.062;2022-11-15T07:31:54;97806.00;;;4.50
7389;BMP180;3735;50.136;11.062;2022-11-15T07:34:20;97802.00;;;4.60
7389;BMP180;3735;50.136;11.062;2022-11-15T07:36:46;97801.00;;;4.70
7389;BMP180;3735;50.136;11.062;2022-11-15T07:39:11;97804.00;;;4.80
7389;BMP180;3735;50.136;11.062;2022-11-15T07:41:38;97804.00;;;4.80
7389;BMP180;3735;50.136;11.062;2022-11-15T07:44:05;97812.00;;;5.00
7389;BMP180;3735;50.136;11.062;2022-11-15T07:46:31;97805.00;;;5.20
7389;BMP180;3735;50.136;11.062;2022-11-15T07:48:57;97795.00;;;5.20
7389;BMP180;3735;50.136;11.062;2022-11-15T07:51:23;97814.00;;;5.20
7389;BMP180;3735;50.136;11.062;2022-11-15T07:53:48;97817.00;;;5.40
7389;BMP180;3735;50.136;11.062;2022-11-15T07:56:14;97810.00;;;5.50
7389;BMP180;3735;50.136;11.062;2022-11-15T07:58:40;97806.00;;;5.40
7389;BMP180;3735;50.136;11.062;2022-11-15T08:01:09;97804.00;;;5.50
7389;BMP180;3735;50.136;11.062;2022-11-15T08:03:36;97801.00;;;5.60
7389;BMP180;3735;50.136;11.062;2022-11-15T08:06:05;97808.00;;;5.70
7389;BMP180;3735;50.136;11.062;2022-11-15T08:08:31;97809.00;;;5.90
7389;BMP180;3735;50.136;11.062;2022-11-15T08:11:00;97792.00;;;6.10
7389;BMP180;3735;50.136;11.062;2022-11-15T08:13:26;97794.00;;;6.10
7389;BMP180;3735;50.136;11.062;2022-11-15T08:15:57;97788.00;;;6.20
7389;BMP180;3735;50.136;11.062;2022-11-15T08:18:23;97798.00;;;6.40
7389;BMP180;3735;50.136;11.062;2022-11-15T08:20:49;97794.00;;;6.50
7389;BMP180;3735;50.136;11.062;2022-11-15T08:23:15;97795.00;;;6.70
7389;BMP180;3735;50.136;11.062;2022-11-15T08:25:41;97784.00;;;6.90
7389;BMP180;3735;50.136;11.062;2022-11-15T08:28:09;97799.00;;;7.00
7389;BMP180;3735;50.136;11.062;2022-11-15T08:30:41;97797.00;;;7.10
7389;BMP180;3735;50.136;11.062;2022-11-15T08:33:12;97792.00;;;7.10
7389;BMP180;3735;50.136;11.062;2022-11-15T08:35:40;97784.00;;;7.20
7389;BMP180;3735;50.136;11.062;2022-11-15T08:38:06;97792.00;;;7.20
7389;BMP180;3735;50.136;11.062;2022-11-15T08:40:31;97789.00;;;7.30
7389;BMP180;3735;50.136;11.062;2022-11-15T08:42:57;97774.00;;;7.50
7389;BMP180;3735;50.136;11.062;2022-11-15T08:45:24;97784.00;;;7.70
7389;BMP180;3735;50.136;11.062;2022-11-15T08:47:50;97780.00;;;7.90
7389;BMP180;3735;50.136;11.062;2022-11-15T08:50:16;97773.00;;;8.20
7389;BMP180;3735;50.136;11.062;2022-11-15T08:52:42;97779.00;;;8.40
7389;BMP180;3735;50.136;11.062;2022-11-15T08:55:08;97758.00;;;8.60
7389;BMP180;3735;50.136;11.062;2022-11-15T08:57:34;97768.00;;;8.90
7389;BMP180;3735;50.136;11.062;2022-11-15T08:59:59;97758.00;;;9.20
7389;BMP180;3735;50.136;11.062;2022-11-15T09:02:25;97754.00;;;9.50
7389;BMP180;3735;50.136;11.062;2022-11-15T09:04:51;97750.00;;;9.70
7389;BMP180;3735;50.136;11.062;2022-11-15T09:07:17;97750.00;;;10.00
7389;BMP180;3735;50.136;11.062;2022-11-15T09:09:43;97742.00;;;10.30
7389;BMP180;3735;50.136;11.062;2022-11-15T09:12:08;97741.00;;;10.50
7389;BMP180;3735;50.136;11.062;2022-11-15T09:14:34;97741.00;;;10.90
7389;BMP180;3735;50.136;11.062;2022-11-15T09:17:00;97741.00;;;11.20
7389;BMP180;3735;50.136;11.062;2022-11-15T09:19:27;97744.00;;;11.30
7389;BMP180;3735;50.136;11.062;2022-11-15T09:21:53;97736.00;;;11.60
7389;BMP180;3735;50.136;11.062;2022-11-15T09:24:19;97737.00;;;11.80
7389;BMP180;3735;50.136;11.062;2022-11-15T09:26:45;97731.00;;;12.10
7389;BMP180;3735;50.136;11.062;2022-11-15T09:29:10;97731.00;;;12.90
7389;BMP180;3735;50.136;11.062;2022-11-15T09:31:36;97729.00;;;13.70
7389;BMP180;3735;50.136;11.062;2022-11-15T09:34:02;97725.00;;;14.40
7389;BMP180;3735;50.136;11.062;2022-11-15T09:36:27;97723.00;;;14.60
7389;BMP180;3735;50.136;11.062;2022-11-15T09:38:53;97708.00;;;14.90
7389;BMP180;3735;50.136;11.062;2022-11-15T09:47:36;97700.00;;;16.50
7389;BMP180;3735;50.136;11.062;2022-11-15T09:50:12;97704.00;;;17.00
7389;BMP180;3735;50.136;11.062;2022-11-15T09:52:44;97703.00;;;16.80
7389;BMP180;3735;50.136;11.062;2022-11-15T09:55:13;97696.00;;;17.50
7389;BMP180;3735;50.136;11.062;2022-11-15T09:58:29;97695.00;;;18.10
7389;BMP180;3735;50.136;11.062;2022-11-15T10:00:51;97683.00;;;18.80
7389;BMP180;3735;50.136;11.062;2022-11-15T10:03:40;97688.00;;;18.80
7389;BMP180;3735;50.136;11.062;2022-11-15T10:06:23;97676.00;;;19.30
7389;BMP180;3735;50.136;11.062;2022-11-15T10:09:25;97676.00;;;19.60
7389;BMP180;3735;50.136;11.062;2022-11-15T10:11:54;97682.00;;;19.70
7389;BMP180;3735;50.136;11.062;2022-11-15T10:14:24;97675.00;;;20.70
7389;BMP180;3735;50.136;11.062;2022-11-15T10:17:59;97674.00;;;20.80
7389;BMP180;3735;50.136;11.062;2022-11-15T10:20:29;97665.00;;;21.10
7389;BMP180;3735;50.136;11.062;2022-11-15T10:23:00;97673.00;;;21.60
7389;BMP180;3735;50.136;11.062;2022-11-15T10:25:32;97669.00;;;21.00
7389;BMP180;3735;50.136;11.062;2022-11-15T10:28:11;97672.00;;;21.40
7389;BMP180;3735;50.136;11.062;2022-11-15T10:30:46;97665.00;;;21.40
7389;BMP180;3735;50.136;11.062;2022-11-15T10:33:25;97663.00;;;21.90
7389;BMP180;3735;50.136;11.062;2022-11-15T10:46:39;97657.00;;;22.90
7389;BMP180;3735;50.136;11.062;2022-11-15T10:49:24;97643.00;;;23.10
7389;BMP180;3735;50.136;11.062;2022-11-15T10:52:16;97651.00;;;23.60
7389;BMP180;3735;50.136;11.062;2022-11-15T10:54:51;97648.00;;;24.00
7389;BMP180;3735;50.136;11.062;2022-11-15T10:57:26;97646.00;;;24.10
7389;BMP180;3735;50.136;11.062;2022-11-15T11:00:00;97639.00;;;24.10
7389;BMP180;3735;50.136;11.062;2022-11-15T11:02:31;97637.00;;;24.10
7389;BMP180;3735;50.136;11.062;2022-11-15T11:04:58;97634.00;;;25.30
7389;BMP180;3735;50.136;11.062;2022-11-15T11:07:31;97641.00;;;24.80
7389;BMP180;3735;50.136;11.062;2022-11-15T11:10:25;97633.00;;;25.50
7389;BMP180;3735;50.136;11.062;2022-11-15T11:12:50;97630.00;;;24.80
7389;BMP180;3735;50.136;11.062;2022-11-15T11:15:17;97626.00;;;25.40
7389;BMP180;3735;50.136;11.062;2022-11-15T11:18:05;97627.00;;;25.30
7389;BMP180;3735;50.136;11.062;2022-11-15T11:20:49;97624.00;;;25.50
7389;BMP180;3735;50.136;11.062;2022-11-15T11:40:44;97616.00;;;25.30
7389;BMP180;3735;50.136;11.062;2022-11-15T11:43:57;97612.00;;;24.80
7389;BMP180;3735;50.136;11.062;2022-11-15T11:47:07;97626.00;;;24.10
7389;BMP180;3735;50.136;11.062;2022-11-15T11:49:43;97616.00;;;23.80
7389;BMP180;3735;50.136;11.062;2022-11-15T11:52:34;97615.00;;;24.40
7389;BMP180;3735;50.136;11.062;2022-11-15T11:55:33;97614.00;;;23.90
7389;BMP180;3735;50.136;11.062;2022-11-15T11:58:21;97614.00;;;23.20
7389;BMP180;3735;50.136;11.062;2022-11-15T12:01:26;97608.00;;;23.30
7389;BMP180;3735;50.136;11.062;2022-11-15T12:04:08;97607.00;;;24.10
7389;BMP180;3735;50.136;11.062;2022-11-15T12:06:59;97608.00;;;23.40
7389;BMP180;3735;50.136;11.062;2022-11-15T12:15:21;97597.00;;;23.20
7389;BMP180;3735;50.136;11.062;2022-11-15T12:17:48;97592.00;;;23.30
7389;BMP180;3735;50.136;11.062;2022-11-15T12:20:32;97597.00;;;22.90
7389;BMP180;3735;50.136;11.062;2022-11-15T12:23:23;97587.00;;;23.00
7389;BMP180;3735;50.136;11.062;2022-11-15T12:34:13;97577.00;;;20.90
7389;BMP180;3735;50.136;11.062;2022-11-15T12:36:44;97576.00;;;20.40
7389;BMP180;3735;50.136;11.062;2022-11-15T12:39:15;97585.00;;;19.80
7389;BMP180;3735;50.136;11.062;2022-11-15T13:02:35;97574.00;;;18.60
7389;BMP180;3735;50.136;11.062;2022-11-15T13:17:48;97565.00;;;17.60
7389;BMP180;3735;50.136;11.062;2022-11-15T13:20:17;97564.00;;;17.40
7389;BMP180;3735;50.136;11.062;2022-11-15T13:28:30;97563.00;;;16.60
7389;BMP180;3735;50.136;11.062;2022-11-15T13:31:00;97552.00;;;16.30
7389;BMP180;3735;50.136;11.062;2022-11-15T13:33:37;97557.00;;;15.90
7389;BMP180;3735;50.136;11.062;2022-11-15T13:36:23;97548.00;;;15.60
7389;BMP180;3735;50.136;11.062;2022-11-15T13:39:02;97545.00;;;15.50
7389;BMP180;3735;50.136;11.062;2022-11-15T13:41:35;97543.00;;;15.20
7389;BMP180;3735;50.136;11.062;2022-11-15T13:44:03;97536.00;;;15.00
7389;BMP180;3735;50.136;11.062;2022-11-15T13:46:32;97529.00;;;14.80
7389;BMP180;3735;50.136;11.062;2022-11-15T13:49:09;97534.00;;;14.60
7389;BMP180;3735;50.136;11.062;2022-11-15T13:51:50;97519.00;;;14.60
7389;BMP180;3735;50.136;11.062;2022-11-15T13:57:12;97502.00;;;14.40
7389;BMP180;3735;50.136;11.062;2022-11-15T14:00:03;97509.00;;;14.30
7389;BMP180;3735;50.136;11.062;2022-11-15T14:02:34;97498.00;;;14.20
7389;BMP180;3735;50.136;11.062;2022-11-15T14:05:19;97503.00;;;14.00
7389;BMP180;3735;50.136;11.062;2022-11-15T14:08:00;97495.00;;;13.90
7389;BMP180;3735;50.136;11.062;2022-11-15T14:10:35;97495.00;;;13.90
7389;BMP180;3735;50.136;11.062;2022-11-15T14:13:04;97496.00;;;14.00
7389;BMP180;3735;50.136;11.062;2022-11-15T14:15:36;97492.00;;;14.30
7389;BMP180;3735;50.136;11.062;2022-11-15T14:18:05;97490.00;;;14.60
7389;BMP180;3735;50.136;11.062;2022-11-15T14:20:39;97489.00;;;14.70
7389;BMP180;3735;50.136;11.062;2022-11-15T14:23:26;97495.00;;;14.50
7389;BMP180;3735;50.136;11.062;2022-11-15T14:25:58;97480.00;;;14.30
7389;BMP180;3735;50.136;11.062;2022-11-15T14:30:53;97476.00;;;13.90
7389;BMP180;3735;50.136;11.062;2022-11-15T14:33:37;97474.00;;;13.70
7389;BMP180;3735;50.136;11.062;2022-11-15T14:36:19;97482.00;;;13.50
7389;BMP180;3735;50.136;11.062;2022-11-15T14:38:47;97478.00;;;13.20
7389;BMP180;3735;50.136;11.062;2022-11-15T14:41:25;97474.00;;;13.00
7389;BMP180;3735;50.136;11.062;2022-11-15T14:43:52;97478.00;;;12.80
7389;BMP180;3735;50.136;11.062;2022-11-15T14:46:19;97471.00;;;12.60
7389;BMP180;3735;50.136;11.062;2022-11-15T14:48:45;97475.00;;;12.40
7389;BMP180;3735;50.136;11.062;2022-11-15T14:51:17;97469.00;;;12.30
7389;BMP180;3735;50.136;11.062;2022-11-15T14:53:45;97458.00;;;12.10
7389;BMP180;3735;50.136;11.062;2022-11-15T14:56:12;97465.00;;;12.00
7389;BMP180;3735;50.136;11.062;2022-11-15T14:58:38;97466.00;;;11.90
7389;BMP180;3735;50.136;11.062;2022-11-15T15:01:23;97466.00;;;11.80
7389;BMP180;3735;50.136;11.062;2022-11-15T15:03:50;97459.00;;;11.80
7389;BMP180;3735;50.136;11.062;2022-11-15T15:06:18;97454.00;;;11.60
7389;BMP180;3735;50.136;11.062;2022-11-15T15:08:45;97460.00;;;11.60
7389;BMP180;3735;50.136;11.062;2022-11-15T15:11:25;97445.00;;;11.50
7389;BMP180;3735;50.136;11.062;2022-11-15T15:13:52;97441.00;;;11.50
7389;BMP180;3735;50.136;11.062;2022-11-15T15:16:19;97446.00;;;11.40
7389;BMP180;3735;50.136;11.062;2022-11-15T15:18:45;97429.00;;;11.40
7389;BMP180;3735;50.136;11.062;2022-11-15T15:21:26;97426.00;;;11.30
7389;BMP180;3735;50.136;11.062;2022-11-15T15:23:54;97437.00;;;11.30
7389;BMP180;3735;50.136;11.062;2022-11-15T15:26:20;97435.00;;;11.20
7389;BMP180;3735;50.136;11.062;2022-11-15T15:28:46;97435.00;;;11.10
7389;BMP180;3735;50.136;11.062;2022-11-15T15:31:14;97427.00;;;11.00
7389;BMP180;3735;50.136;11.062;2022-11-15T15:33:40;97428.00;;;10.90
7389;BMP180;3735;50.136;11.062;2022-11-15T15:36:11;97421.00;;;10.80
7389;BMP180;3735;50.136;11.062;2022-11-15T15:38:38;97422.00;;;10.70
7389;BMP180;3735;50.136;11.062;2022-11-15T15:41:10;97423.00;;;10.60
7389;BMP180;3735;50.136;11.062;2022-11-15T15:43:36;97425.00;;;10.40
7389;BMP180;3735;50.136;11.062;2022-11-15T15:46:02;97418.00;;;10.30
7389;BMP180;3735;50.136;11.062;2022-11-15T15:48:28;97425.00;;;10.20
7389;BMP180;3735;50.136;11.062;2022-11-15T15:50:54;97419.00;;;10.20
7389;BMP180;3735;50.136;11.062;2022-11-15T15:53:19;97404.00;;;10.30
7389;BMP180;3735;50.136;11.062;2022-11-15T15:55:45;97423.00;;;10.20
7389;BMP180;3735;50.136;11.062;2022-11-15T15:58:11;97428.00;;;10.10
7389;BMP180;3735;50.136;11.062;2022-11-15T16:00:37;97423.00;;;10.00
7389;BMP180;3735;50.136;11.062;2022-11-15T16:03:03;97422.00;;;9.90
7389;BMP180;3735;50.136;11.062;2022-11-15T16:05:28;97422.00;;;9.80
7389;BMP180;3735;50.136;11.062;2022-11-15T16:07:54;97406.00;;;10.10
7389;BMP180;3735;50.136;11.062;2022-11-15T16:10:27;97408.00;;;10.10
7389;BMP180;3735;50.136;11.062;2022-11-15T16:12:55;97409.00;;;10.00
7389;BMP180;3735;50.136;11.062;2022-11-15T16:15:23;97407.00;;;9.90
7389;BMP180;3735;50.136;11.062;2022-11-15T16:18:00;97401.00;;;9.70
7389;BMP180;3735;50.136;11.062;2022-11-15T16:20:48;97405.00;;;9.70
7389;BMP180;3735;50.136;11.062;2022-11-15T16:23:17;97400.00;;;9.60
7389;BMP180;3735;50.136;11.062;2022-11-15T16:25:50;97397.00;;;9.60
7389;BMP180;3735;50.136;11.062;2022-11-15T16:30:58;97395.00;;;9.30
7389;BMP180;3735;50.136;11.062;2022-11-15T16:33:24;97400.00;;;9.10
7389;BMP180;3735;50.136;11.062;2022-11-15T16:35:50;97403.00;;;9.00
7389;BMP180;3735;50.136;11.062;2022-11-15T16:38:17;97404.00;;;8.90
7389;BMP180;3735;50.136;11.062;2022-11-15T16:40:43;97400.00;;;8.90
7389;BMP180;3735;50.136;11.062;2022-11-15T16:43:09;97398.00;;;8.80
7389;BMP180;3735;50.136;11.062;2022-11-15T16:45:35;97402.00;;;8.70
7389;BMP180;3735;50.136;11.062;2022-11-15T16:48:02;97394.00;;;8.80
7389;BMP180;3735;50.136;11.062;2022-11-15T16:50:31;97391.00;;;8.90
7389;BMP180;3735;50.136;11.062;2022-11-15T16:53:00;97392.00;;;8.80
7389;BMP180;3735;50.136;11.062;2022-11-15T16:55:28;97392.00;;;8.70
7389;BMP180;3735;50.136;11.062;2022-11-15T16:57:55;97384.00;;;8.60